Wetterdaten: Woche 09.02.04 - 15.02.04 (KW7)
Datum Zeit Temperatur Luftfeuchte Luftdruck Regenmenge Wind Richtung Taupunkt Windchill
09.02.2004 00:00 1.2 C 94 % 1025.4 hPa 2.0 l/m 31.6 km/h (5 Bft) NW 0.3 C -5.0 C
09.02.2004 01:00 0.2 C 92 % 1026.4 hPa 0.0 l/m 16.0 km/h (3 Bft) NW -0.9 C -4.0 C
09.02.2004 02:00 0.4 C 86 % 1027.2 hPa 0.0 l/m 23.3 km/h (4 Bft) W-NW -1.7 C -5.0 C
09.02.2004 03:00 0.5 C 85 % 1027.7 hPa 0.0 l/m 22.2 km/h (4 Bft) W-NW -1.7 C -4.8 C
09.02.2004 04:00 0.6 C 86 % 1028.5 hPa 0.0 l/m 18.4 km/h (3 Bft) W-NW -1.6 C -4.2 C
09.02.2004 05:00 0.6 C 87 % 1029.2 hPa 0.0 l/m 21.4 km/h (4 Bft) W-NW -1.3 C -4.6 C
09.02.2004 06:00 0.7 C 85 % 1030.0 hPa 0.0 l/m 24.9 km/h (4 Bft) W-NW -1.5 C -5.0 C
09.02.2004 07:00 0.4 C 85 % 1030.9 hPa 0.0 l/m 24.2 km/h (4 Bft) W-NW -1.7 C -5.2 C
09.02.2004 08:00 0.1 C 81 % 1032.3 hPa 0.0 l/m 23.8 km/h (4 Bft) W-NW -2.7 C -5.5 C
09.02.2004 09:00 0.8 C 64 % 1033.7 hPa 0.0 l/m 20.7 km/h (4 Bft) W-NW -5.3 C -4.3 C
09.02.2004 10:00 1.3 C 56 % 1034.6 hPa 0.7 l/m 25.5 km/h (4 Bft) W-NW -6.5 C -4.3 C
09.02.2004 11:00 2.1 C 54 % 1034.7 hPa 0.3 l/m 20.3 km/h (4 Bft) NW -6.1 C -2.5 C
09.02.2004 12:00 2.9 C 48 % 1034.7 hPa 0.0 l/m 21.0 km/h (4 Bft) NW -7.1 C -1.7 C
09.02.2004 13:00 3.3 C 46 % 1034.7 hPa 0.0 l/m 18.5 km/h (3 Bft) W-NW -7.1 C -0.6 C
09.02.2004 14:00 4.6 C 44 % 1034.2 hPa 0.0 l/m 15.5 km/h (3 Bft) NW -6.8 C 1.3 C
09.02.2004 15:00 4.8 C 45 % 1033.7 hPa 0.0 l/m 13.3 km/h (3 Bft) W-NW -6.2 C 1.9 C
09.02.2004 16:00 3.8 C 47 % 1033.7 hPa 0.0 l/m 9.0 km/h (2 Bft) W-NW -6.6 C 1.7 C
09.02.2004 17:00 1.9 C 56 % 1034.4 hPa 0.0 l/m 3.4 km/h (1 Bft) W-NW -5.9 C 1.1 C
09.02.2004 18:00 0.2 C 66 % 1034.7 hPa 0.0 l/m 1.7 km/h (1 Bft) O-NO -5.4 C -0.4 C
09.02.2004 19:00 -1.2 C 75 % 1035.3 hPa 0.0 l/m 0.4 km/h (0 Bft) O-NO -5.0 C -1.3 C
09.02.2004 20:00 -1.7 C 81 % 1035.7 hPa 0.0 l/m 4.5 km/h (1 Bft) O-SO -4.5 C -3.1 C
09.02.2004 21:00 -1.9 C 82 % 1036.6 hPa 0.0 l/m 4.3 km/h (1 Bft) O-SO -4.7 C -3.4 C
09.02.2004 22:00 -2.8 C 84 % 1036.8 hPa 0.0 l/m 2.8 km/h (1 Bft) O-SO -5.2 C -3.7 C
09.02.2004 23:00 -2.9 C 86 % 1036.6 hPa 0.0 l/m 3.7 km/h (1 Bft) O-SO -4.8 C -3.8 C
10.02.2004 00:00 -3.4 C 87 % 1036.3 hPa 0.0 l/m 0.4 km/h (0 Bft) O-SO -5.3 C -3.5 C
10.02.2004 01:00 -4.0 C 88 % 1036.8 hPa 0.0 l/m 0.3 km/h (0 Bft) O-SO -5.7 C -4.0 C
10.02.2004 02:00 -4.2 C 88 % 1036.5 hPa 0.0 l/m 0.0 km/h (0 Bft) N -5.9 C -4.2 C
10.02.2004 03:00 -4.7 C 88 % 1036.0 hPa 0.0 l/m 0.0 km/h (0 Bft) N -6.3 C -4.7 C
10.02.2004 04:00 -4.8 C 88 % 1035.7 hPa 0.0 l/m 0.1 km/h (0 Bft) O-SO -6.4 C -4.8 C
10.02.2004 05:00 -5.2 C 86 % 1035.7 hPa 0.0 l/m 0.4 km/h (0 Bft) O-SO -7.1 C -5.2 C
10.02.2004 06:00 -5.4 C 85 % 1035.7 hPa 0.0 l/m 0.3 km/h (0 Bft) O-SO -7.5 C -5.4 C
10.02.2004 07:00 -5.9 C 84 % 1035.7 hPa 0.0 l/m 0.0 km/h (0 Bft) N -8.1 C -5.9 C
10.02.2004 08:00 -5.4 C 85 % 1035.7 hPa 0.0 l/m 0.0 km/h (0 Bft) N -7.6 C -5.4 C
10.02.2004 09:00 -3.4 C 89 % 1036.3 hPa 0.0 l/m 0.0 km/h (0 Bft) N -5.0 C -3.4 C
10.02.2004 10:00 -2.2 C 81 % 1035.7 hPa 0.0 l/m 0.5 km/h (0 Bft) W -5.1 C -2.3 C
10.02.2004 11:00 -0.3 C 70 % 1035.7 hPa 0.0 l/m 1.8 km/h (1 Bft) W -5.1 C -0.8 C
10.02.2004 12:00 1.8 C 59 % 1034.7 hPa 0.0 l/m 1.9 km/h (1 Bft) W-NW -5.5 C 1.4 C
10.02.2004 13:00 3.6 C 52 % 1033.7 hPa 0.0 l/m 2.9 km/h (1 Bft) W -5.3 C 3.0 C
10.02.2004 14:00 4.5 C 47 % 1032.6 hPa 0.0 l/m 1.2 km/h (1 Bft) O-NO -5.7 C 4.3 C
10.02.2004 15:00 5.1 C 44 % 1032.1 hPa 0.0 l/m 1.1 km/h (0 Bft) W -6.0 C 4.9 C
10.02.2004 16:00 4.1 C 49 % 1031.6 hPa 0.0 l/m 0.9 km/h (0 Bft) SO -5.6 C 4.1 C
10.02.2004 17:00 2.3 C 59 % 1030.6 hPa 0.0 l/m 0.0 km/h (0 Bft) N -4.8 C 2.3 C
10.02.2004 18:00 0.8 C 68 % 1030.5 hPa 0.0 l/m 1.3 km/h (1 Bft) SO -4.5 C 0.6 C
10.02.2004 19:00 0.7 C 71 % 1030.1 hPa 0.0 l/m 6.6 km/h (2 Bft) O-SO -3.8 C -1.4 C
10.02.2004 20:00 0.4 C 73 % 1029.5 hPa 0.0 l/m 0.0 km/h (0 Bft) N -4.0 C 0.4 C
10.02.2004 21:00 0.7 C 73 % 1029.1 hPa 0.0 l/m 0.0 km/h (0 Bft) N -3.6 C 0.7 C
10.02.2004 22:00 1.0 C 72 % 1028.5 hPa 0.0 l/m 2.3 km/h (1 Bft) SO -3.4 C 0.4 C
10.02.2004 23:00 2.1 C 63 % 1028.5 hPa 0.0 l/m 7.5 km/h (2 Bft) W-NW -4.2 C 0.5 C
11.02.2004 00:00 2.7 C 54 % 1027.6 hPa 0.0 l/m 11.7 km/h (2 Bft) W-NW -5.6 C -0.0 C
11.02.2004 01:00 3.0 C 51 % 1027.4 hPa 0.0 l/m 17.5 km/h (3 Bft) W-NW -6.1 C -1.0 C
11.02.2004 02:00 3.2 C 48 % 1027.0 hPa 0.0 l/m 19.2 km/h (3 Bft) W-NW -6.7 C -1.0 C
11.02.2004 03:00 3.2 C 48 % 1026.4 hPa 0.0 l/m 17.0 km/h (3 Bft) W-NW -6.6 C -0.7 C
11.02.2004 04:00 3.3 C 49 % 1025.3 hPa 0.0 l/m 19.4 km/h (3 Bft) W-NW -6.4 C -0.9 C
11.02.2004 05:00 2.9 C 52 % 1026.0 hPa 0.0 l/m 23.2 km/h (4 Bft) W-NW -6.1 C -1.7 C
11.02.2004 06:00 1.2 C 74 % 1026.1 hPa 0.0 l/m 17.3 km/h (3 Bft) W-NW -3.0 C -3.3 C
11.02.2004 07:00 0.4 C 89 % 1025.3 hPa 0.0 l/m 14.8 km/h (3 Bft) W-NW -1.2 C -3.8 C
11.02.2004 08:00 0.2 C 92 % 1025.5 hPa 0.0 l/m 16.2 km/h (3 Bft) W-NW -0.9 C -4.3 C
11.02.2004 09:00 0.4 C 92 % 1025.5 hPa 0.0 l/m 6.8 km/h (2 Bft) W-NW -0.8 C -1.3 C
11.02.2004 10:00 0.8 C 89 % 1026.1 hPa 0.7 l/m 4.8 km/h (1 Bft) W-NW -0.8 C -0.6 C
11.02.2004 11:00 1.1 C 90 % 1026.4 hPa 0.0 l/m 0.1 km/h (0 Bft) N -0.4 C 1.1 C
11.02.2004 12:00 1.6 C 93 % 1026.4 hPa 0.3 l/m 1.6 km/h (1 Bft) W 0.6 C 1.5 C
11.02.2004 13:00 2.3 C 91 % 1026.4 hPa 0.3 l/m 0.5 km/h (0 Bft) W 1.1 C 2.3 C
11.02.2004 14:00 2.6 C 86 % 1025.8 hPa 0.0 l/m 4.1 km/h (1 Bft) W 0.5 C 1.6 C
11.02.2004 15:00 2.8 C 84 % 1025.9 hPa 0.0 l/m 1.9 km/h (1 Bft) W 0.4 C 2.5 C
11.02.2004 16:00 3.0 C 84 % 1026.3 hPa 0.0 l/m 0.8 km/h (0 Bft) O 0.5 C 2.9 C
11.02.2004 17:00 2.9 C 83 % 1026.4 hPa 0.0 l/m 1.3 km/h (1 Bft) S 0.4 C 2.7 C
11.02.2004 18:00 2.7 C 86 % 1026.7 hPa 0.0 l/m 3.6 km/h (1 Bft) SO 0.5 C 1.9 C
11.02.2004 19:00 2.7 C 87 % 1027.4 hPa 0.0 l/m 2.9 km/h (1 Bft) SO 0.7 C 2.1 C
11.02.2004 20:00 2.8 C 87 % 1027.6 hPa 0.0 l/m 2.0 km/h (1 Bft) SO 0.9 C 2.3 C
11.02.2004 21:00 2.8 C 88 % 1028.5 hPa 0.0 l/m 0.3 km/h (0 Bft) S-SO 1.1 C 2.8 C
11.02.2004 22:00 2.6 C 89 % 1028.5 hPa 0.0 l/m 0.0 km/h (0 Bft) N 0.9 C 2.6 C
11.02.2004 23:00 2.5 C 91 % 1029.1 hPa 0.0 l/m 0.0 km/h (0 Bft) N 1.3 C 2.5 C
12.02.2004 00:00 2.4 C 94 % 1029.4 hPa 0.0 l/m 0.0 km/h (0 Bft) N 1.6 C 2.4 C
12.02.2004 01:00 2.4 C 95 % 1029.5 hPa 0.0 l/m 0.9 km/h (0 Bft) S-SO 1.7 C 2.2 C
12.02.2004 02:00 2.3 C 94 % 1029.5 hPa 0.0 l/m 0.0 km/h (0 Bft) N 1.4 C 2.3 C
12.02.2004 03:00 2.0 C 92 % 1029.5 hPa 0.0 l/m 0.0 km/h (0 Bft) N 0.8 C 2.0 C
12.02.2004 04:00 1.5 C 92 % 1029.5 hPa 0.0 l/m 0.3 km/h (0 Bft) S-SO 0.3 C 1.5 C
12.02.2004 05:00 1.0 C 94 % 1030.0 hPa 0.0 l/m 0.0 km/h (0 Bft) N 0.1 C 1.0 C
12.02.2004 06:00 0.8 C 96 % 1030.5 hPa 0.0 l/m 0.0 km/h (0 Bft) N 0.1 C 0.8 C
12.02.2004 07:00 0.7 C 97 % 1030.7 hPa 0.0 l/m 0.0 km/h (0 Bft) N 0.3 C 0.7 C
12.02.2004 08:00 0.9 C 98 % 1031.6 hPa 0.0 l/m 0.1 km/h (0 Bft) N 0.6 C 0.9 C
12.02.2004 09:00 1.5 C 92 % 1031.6 hPa 0.0 l/m 0.2 km/h (0 Bft) N 0.4 C 1.5 C
12.02.2004 10:00 2.9 C 82 % 1031.8 hPa 0.0 l/m 0.3 km/h (0 Bft) NO 0.2 C 2.9 C
12.02.2004 11:00 4.4 C 70 % 1031.7 hPa 0.0 l/m 5.0 km/h (1 Bft) O-SO -0.6 C 3.3 C
12.02.2004 12:00 4.9 C 63 % 1031.6 hPa 0.0 l/m 5.3 km/h (1 Bft) O-SO -1.5 C 3.8 C
12.02.2004 13:00 5.6 C 58 % 1031.6 hPa 0.0 l/m 3.3 km/h (1 Bft) O-SO -1.9 C 5.0 C
12.02.2004 14:00 6.0 C 57 % 1031.6 hPa 0.0 l/m 8.1 km/h (2 Bft) O-SO -2.0 C 4.3 C
12.02.2004 15:00 5.7 C 58 % 1031.6 hPa 0.0 l/m 9.0 km/h (2 Bft) O-SO -2.0 C 3.7 C
12.02.2004 16:00 4.8 C 63 % 1031.6 hPa 0.0 l/m 11.5 km/h (2 Bft) O-SO -1.5 C 2.2 C
12.02.2004 17:00 4.0 C 66 % 1032.1 hPa 0.0 l/m 6.7 km/h (2 Bft) O-SO -1.7 C 2.7 C
12.02.2004 18:00 2.6 C 71 % 1032.6 hPa 0.0 l/m 2.0 km/h (1 Bft) O -2.1 C 2.5 C
12.02.2004 19:00 2.1 C 75 % 1032.6 hPa 0.0 l/m 2.1 km/h (1 Bft) O -2.0 C 1.6 C
12.02.2004 20:00 1.4 C 77 % 1032.6 hPa 0.0 l/m 0.1 km/h (0 Bft) N -2.1 C 1.4 C
12.02.2004 21:00 1.6 C 79 % 1032.6 hPa 0.0 l/m 0.0 km/h (0 Bft) N -1.7 C 1.6 C
12.02.2004 22:00 1.1 C 80 % 1032.6 hPa 0.0 l/m 0.0 km/h (0 Bft) N -2.0 C 1.1 C
12.02.2004 23:00 0.2 C 82 % 1032.6 hPa 0.0 l/m 0.3 km/h (0 Bft) NO -2.4 C 0.2 C
13.02.2004 00:00 -0.4 C 86 % 1033.0 hPa 0.0 l/m 0.0 km/h (0 Bft) N -2.6 C -0.4 C
13.02.2004 01:00 -0.8 C 88 % 1033.0 hPa 0.0 l/m 0.0 km/h (0 Bft) N -2.5 C -0.8 C
13.02.2004 02:00 -0.9 C 90 % 1033.7 hPa 0.0 l/m 0.0 km/h (0 Bft) N -2.4 C -0.9 C
13.02.2004 03:00 -2.0 C 89 % 1033.7 hPa 0.0 l/m 0.2 km/h (0 Bft) NO -3.5 C -2.0 C
13.02.2004 04:00 -2.1 C 91 % 1033.7 hPa 0.0 l/m 0.2 km/h (0 Bft) N -3.4 C -2.1 C
13.02.2004 05:00 -2.8 C 91 % 1033.7 hPa 0.0 l/m 0.0 km/h (0 Bft) N -4.0 C -2.8 C
13.02.2004 06:00 -2.8 C 92 % 1033.7 hPa 0.0 l/m 0.0 km/h (0 Bft) N -4.0 C -2.8 C
13.02.2004 07:00 -3.1 C 91 % 1033.7 hPa 0.0 l/m 0.0 km/h (0 Bft) N -4.4 C -3.1 C
13.02.2004 08:00 -2.4 C 93 % 1034.0 hPa 0.0 l/m 0.0 km/h (0 Bft) N -3.3 C -2.4 C
13.02.2004 09:00 -1.1 C 98 % 1034.0 hPa 0.0 l/m 0.0 km/h (0 Bft) N -1.4 C -1.1 C
13.02.2004 10:00 1.1 C 89 % 1033.8 hPa 0.0 l/m 0.6 km/h (0 Bft) O-SO -0.6 C 0.9 C
13.02.2004 11:00 4.2 C 62 % 1034.1 hPa 0.0 l/m 8.0 km/h (2 Bft) O-SO -2.4 C 2.5 C
13.02.2004 12:00 6.0 C 52 % 1033.8 hPa 0.0 l/m 6.9 km/h (2 Bft) O-SO -3.0 C 4.5 C
13.02.2004 13:00 7.6 C 48 % 1032.7 hPa 0.0 l/m 6.5 km/h (2 Bft) O-SO -2.9 C 6.6 C
13.02.2004 14:00 8.6 C 45 % 1032.4 hPa 0.0 l/m 3.9 km/h (1 Bft) O-SO -2.6 C 8.0 C
13.02.2004 15:00 8.8 C 45 % 1031.6 hPa 0.0 l/m 3.5 km/h (1 Bft) O-SO -2.4 C 8.4 C
13.02.2004 16:00 8.1 C 50 % 1031.6 hPa 0.0 l/m 5.4 km/h (1 Bft) O-SO -1.9 C 7.3 C
13.02.2004 17:00 6.9 C 54 % 1031.0 hPa 0.0 l/m 6.8 km/h (2 Bft) O-SO -1.8 C 5.7 C
13.02.2004 18:00 4.6 C 61 % 1031.3 hPa 0.0 l/m 4.2 km/h (1 Bft) O-SO -2.3 C 3.8 C
13.02.2004 19:00 2.7 C 71 % 1031.6 hPa 0.0 l/m 1.5 km/h (1 Bft) O-SO -2.0 C 2.3 C
13.02.2004 20:00 1.7 C 78 % 1031.5 hPa 0.0 l/m 1.2 km/h (1 Bft) O-SO -1.7 C 1.7 C
13.02.2004 21:00 2.4 C 75 % 1030.8 hPa 0.0 l/m 0.0 km/h (0 Bft) N -1.6 C 2.4 C
13.02.2004 22:00 2.6 C 74 % 1030.5 hPa 0.0 l/m 0.0 km/h (0 Bft) N -1.5 C 2.6 C
13.02.2004 23:00 1.7 C 80 % 1030.5 hPa 0.0 l/m 1.0 km/h (0 Bft) O-SO -1.4 C 1.4 C
14.02.2004 00:00 1.4 C 79 % 1029.9 hPa 0.0 l/m 3.4 km/h (1 Bft) O-SO -1.8 C 0.4 C
14.02.2004 01:00 1.4 C 81 % 1029.5 hPa 0.0 l/m 0.9 km/h (0 Bft) O-SO -1.5 C 1.2 C
14.02.2004 02:00 1.8 C 81 % 1029.5 hPa 0.0 l/m 0.0 km/h (0 Bft) N -1.2 C 1.8 C
14.02.2004 03:00 2.0 C 81 % 1029.1 hPa 0.0 l/m 0.0 km/h (0 Bft) N -0.9 C 2.0 C
14.02.2004 04:00 2.2 C 81 % 1028.5 hPa 0.0 l/m 0.0 km/h (0 Bft) N -0.7 C 2.2 C
14.02.2004 05:00 2.3 C 83 % 1028.5 hPa 0.0 l/m 0.0 km/h (0 Bft) N -0.3 C 2.3 C
14.02.2004 06:00 2.4 C 82 % 1027.7 hPa 0.0 l/m 0.0 km/h (0 Bft) N -0.3 C 2.4 C
14.02.2004 07:00 2.5 C 81 % 1027.4 hPa 0.0 l/m 0.0 km/h (0 Bft) N -0.5 C 2.5 C
14.02.2004 08:00 2.8 C 80 % 1027.4 hPa 0.0 l/m 0.0 km/h (0 Bft) N -0.2 C 2.8 C
14.02.2004 09:00 3.1 C 78 % 1027.4 hPa 0.0 l/m 0.1 km/h (0 Bft) N -0.3 C 3.1 C
14.02.2004 10:00 4.8 C 68 % 1026.7 hPa 0.0 l/m 0.3 km/h (0 Bft) SO -0.6 C 4.7 C
14.02.2004 11:00 5.8 C 59 % 1026.4 hPa 0.0 l/m 1.2 km/h (1 Bft) SO -1.6 C 5.6 C
14.02.2004 12:00 6.5 C 55 % 1026.1 hPa 0.0 l/m 5.7 km/h (1 Bft) O-SO -1.9 C 5.5 C
14.02.2004 13:00 6.9 C 55 % 1025.3 hPa 0.0 l/m 13.0 km/h (3 Bft) O-SO -1.5 C 4.5 C
14.02.2004 14:00 9.3 C 50 % 1024.4 hPa 0.0 l/m 13.9 km/h (3 Bft) O-SO -0.7 C 7.2 C
14.02.2004 15:00 8.9 C 47 % 1024.3 hPa 0.0 l/m 0.9 km/h (0 Bft) O -1.7 C 8.9 C
14.02.2004 16:00 7.4 C 55 % 1023.8 hPa 0.0 l/m 3.5 km/h (1 Bft) O-SO -1.0 C 7.0 C
14.02.2004 17:00 6.1 C 63 % 1023.3 hPa 0.0 l/m 5.3 km/h (1 Bft) O-SO -0.5 C 5.2 C
14.02.2004 18:00 4.0 C 70 % 1023.9 hPa 0.0 l/m 1.6 km/h (1 Bft) O-SO -0.9 C 3.7 C
14.02.2004 19:00 4.1 C 73 % 1024.3 hPa 0.0 l/m 4.5 km/h (1 Bft) O-SO -0.3 C 3.2 C
14.02.2004 20:00 3.6 C 74 % 1024.3 hPa 0.0 l/m 2.6 km/h (1 Bft) S -0.5 C 3.1 C
14.02.2004 21:00 2.3 C 80 % 1024.3 hPa 0.0 l/m 1.7 km/h (1 Bft) SO -0.8 C 2.1 C
14.02.2004 22:00 1.7 C 85 % 1024.3 hPa 0.0 l/m 6.5 km/h (2 Bft) SO -0.6 C -0.1 C
14.02.2004 23:00 1.8 C 85 % 1024.3 hPa 0.0 l/m 5.9 km/h (2 Bft) O-SO -0.5 C 0.2 C
15.02.2004 00:00 1.8 C 85 % 1024.3 hPa 0.0 l/m 3.6 km/h (1 Bft) O-SO -0.4 C 1.1 C
15.02.2004 01:00 2.0 C 84 % 1024.3 hPa 0.0 l/m 3.0 km/h (1 Bft) O-SO -0.5 C 1.5 C
15.02.2004 02:00 1.9 C 84 % 1024.3 hPa 0.0 l/m 2.0 km/h (1 Bft) O-SO -0.5 C 1.5 C
15.02.2004 03:00 1.9 C 84 % 1024.0 hPa 0.0 l/m 2.8 km/h (1 Bft) SO -0.6 C 1.5 C
15.02.2004 04:00 1.7 C 85 % 1023.4 hPa 0.0 l/m 0.8 km/h (0 Bft) SO -0.5 C 1.7 C
15.02.2004 05:00 1.7 C 86 % 1023.8 hPa 0.0 l/m 0.0 km/h (0 Bft) N -0.4 C 1.7 C
15.02.2004 06:00 1.6 C 85 % 1023.3 hPa 0.0 l/m 0.6 km/h (0 Bft) SO -0.6 C 1.5 C
15.02.2004 07:00 1.6 C 86 % 1024.2 hPa 0.0 l/m 0.6 km/h (0 Bft) SO -0.5 C 1.6 C
15.02.2004 08:00 2.0 C 84 % 1024.3 hPa 0.0 l/m 0.6 km/h (0 Bft) SO -0.3 C 2.0 C
15.02.2004 09:00 2.9 C 79 % 1024.3 hPa 0.0 l/m 0.1 km/h (0 Bft) S -0.3 C 2.9 C
15.02.2004 10:00 4.5 C 70 % 1024.3 hPa 0.0 l/m 2.0 km/h (1 Bft) S-SO -0.5 C 4.1 C
15.02.2004 11:00 6.7 C 57 % 1024.3 hPa 0.0 l/m 6.3 km/h (2 Bft) O-SO -1.4 C 5.7 C
15.02.2004 12:00 8.7 C 45 % 1023.3 hPa 0.0 l/m 19.3 km/h (3 Bft) O-SO -2.7 C 5.8 C
15.02.2004 13:00 8.4 C 45 % 1023.3 hPa 0.0 l/m 14.9 km/h (3 Bft) O-SO -3.0 C 6.0 C
15.02.2004 14:00 8.2 C 44 % 1023.3 hPa 0.0 l/m 15.2 km/h (3 Bft) O-SO -3.5 C 5.7 C
15.02.2004 15:00 7.8 C 45 % 1023.3 hPa 0.0 l/m 15.2 km/h (3 Bft) O-SO -3.5 C 5.2 C
15.02.2004 16:00 7.2 C 46 % 1023.3 hPa 0.0 l/m 5.3 km/h (1 Bft) O-SO -3.6 C 6.2 C
15.02.2004 17:00 6.3 C 50 % 1023.9 hPa 0.0 l/m 1.6 km/h (1 Bft) N-NO -3.4 C 6.1 C
15.02.2004 18:00 5.8 C 54 % 1024.3 hPa 0.0 l/m 0.1 km/h (0 Bft) N -2.8 C 5.8 C
15.02.2004 19:00 5.4 C 57 % 1024.3 hPa 0.0 l/m 0.0 km/h (0 Bft) N -2.5 C 5.4 C
15.02.2004 20:00 5.1 C 59 % 1024.5 hPa 0.0 l/m 0.0 km/h (0 Bft) N -2.2 C 5.1 C
15.02.2004 21:00 4.7 C 61 % 1025.3 hPa 0.0 l/m 0.0 km/h (0 Bft) N -2.3 C 4.7 C
15.02.2004 22:00 4.4 C 62 % 1025.3 hPa 0.0 l/m 0.0 km/h (0 Bft) N -2.3 C 4.4 C
15.02.2004 23:00 4.4 C 61 % 1024.9 hPa 0.0 l/m 0.1 km/h (0 Bft) N -2.4 C 4.4 C
Min-Datum _ 10.02.04 09.02.04 14.02.04 - 09.02.04 - 09.02.04 09.02.04
_ Min-Zeit 07:47 14:23 17:00 - 17:35 - 14:23 08:23
Minimum _ -6.2 C 36 % 1023.3 hPa - 0.0 km/h (0 Bft) - -9.2 C -6.9 C
Max-Datum _ 14.02.04 12.02.04 09.02.04 09.02.04 09.02.04 - 12.02.04 14.02.04
_ Max-Zeit 15:04 07:23 21:10 00:02 00:41 - 00:32 15:04
Maximum _ 9.9 C 98 % 1036.8 hPa 2.0 l/m 47.7 km/h
NW (6 Bft)
- 1.8 C 9.9 C
Durchschnitt _ 2.2 C 74 % 1029.6 hPa #4.4 l/m 5.1 km/h (1 Bft) O-SO -2.4 C 1.1 C

Durchschnitt Minimum Temp.1.6 C
Durchschnitt Maximum Temp.2.7 C
© Kaiko 2004